createdAt,value
2018-05-10T00:01:53.534Z,82.48
2018-05-10T00:04:19.560Z,82.64
2018-05-10T00:06:45.628Z,83.05
2018-05-10T00:09:11.660Z,83.16
2018-05-10T00:11:37.676Z,83.58
2018-05-10T00:14:03.703Z,83.41
2018-05-10T00:16:29.719Z,83.23
2018-05-10T00:18:55.757Z,83.04
2018-05-10T00:21:21.771Z,83.12
2018-05-10T00:23:47.783Z,82.81
2018-05-10T00:26:13.841Z,82.48
2018-05-10T00:28:39.951Z,82.71
2018-05-10T00:31:05.958Z,83.25
2018-05-10T00:33:32.015Z,82.54
2018-05-10T00:35:58.060Z,84.18
2018-05-10T00:38:24.141Z,81.95
2018-05-10T00:40:50.208Z,82.04
2018-05-10T00:43:16.230Z,83.35
2018-05-10T00:45:42.372Z,83.28
2018-05-10T00:48:08.504Z,83.29
2018-05-10T00:50:34.684Z,83.69
2018-05-10T00:53:00.825Z,82.60
2018-05-10T00:55:26.865Z,81.69
2018-05-10T00:57:52.894Z,84.38
2018-05-10T01:00:19.043Z,81.02
2018-05-10T01:02:45.162Z,82.53
2018-05-10T01:05:11.182Z,81.14
2018-05-10T01:07:37.189Z,81.39
2018-05-10T01:10:03.249Z,79.94
2018-05-10T01:12:29.280Z,79.39
2018-05-10T01:14:55.321Z,78.71
2018-05-10T01:17:21.422Z,78.22
2018-05-10T01:19:47.501Z,78.12
2018-05-10T01:22:13.584Z,78.75
2018-05-10T01:24:39.591Z,77.53
2018-05-10T01:27:05.607Z,78.92
2018-05-10T01:29:31.637Z,78.14
2018-05-10T01:31:57.656Z,78.20
2018-05-10T01:34:23.680Z,78.41
2018-05-10T01:36:49.696Z,78.62
2018-05-10T01:39:15.720Z,77.17
2018-05-10T01:41:41.759Z,78.10
2018-05-10T01:44:07.797Z,78.08
2018-05-10T01:46:33.795Z,77.69
2018-05-10T01:48:59.856Z,77.18
2018-05-10T01:51:25.870Z,77.80
2018-05-10T01:53:51.898Z,78.25
2018-05-10T01:56:17.930Z,78.43
2018-05-10T01:58:43.916Z,78.96
2018-05-10T02:01:09.931Z,78.45
2018-05-10T02:03:35.956Z,77.45
2018-05-10T02:06:02.026Z,78.46
2018-05-10T02:08:28.061Z,77.24
2018-05-10T02:10:54.052Z,77.07
2018-05-10T02:13:20.084Z,76.75
2018-05-10T02:15:46.201Z,76.61
2018-05-10T02:18:12.274Z,76.45
2018-05-10T02:20:38.299Z,76.08
2018-05-10T02:23:04.285Z,76.64
2018-05-10T02:25:31.297Z,76.79
2018-05-10T02:27:57.572Z,75.08
2018-05-10T02:30:23.597Z,75.27
2018-05-10T02:32:49.661Z,75.63
2018-05-10T02:35:15.705Z,75.93
2018-05-10T02:37:41.681Z,75.56
2018-05-10T02:40:07.739Z,75.48
2018-05-10T02:42:33.753Z,76.04
2018-05-10T02:44:59.829Z,75.90
2018-05-10T02:47:25.810Z,75.95
2018-05-10T02:49:51.849Z,75.89
2018-05-10T02:52:17.857Z,75.86
2018-05-10T02:54:43.899Z,76.31
2018-05-10T02:57:09.970Z,76.15
2018-05-10T02:59:35.972Z,77.52
2018-05-10T03:02:01.998Z,76.44
2018-05-10T03:04:28.020Z,77.17
2018-05-10T03:06:54.076Z,76.45
2018-05-10T03:09:20.117Z,77.67
2018-05-10T03:11:46.161Z,77.72
2018-05-10T03:14:12.357Z,77.41
2018-05-10T03:16:38.510Z,77.29
2018-05-10T03:19:04.540Z,77.96
2018-05-10T03:21:30.572Z,78.12
2018-05-10T03:23:56.660Z,77.09
2018-05-10T03:26:23.626Z,77.60
2018-05-10T03:28:49.636Z,78.63
2018-05-10T03:31:15.759Z,78.71
2018-05-10T03:33:41.766Z,78.32
2018-05-10T03:36:07.771Z,78.60
2018-05-10T03:38:33.813Z,78.83
2018-05-10T03:40:59.845Z,78.21
2018-05-10T03:43:25.931Z,79.09
2018-05-10T03:45:51.970Z,78.23
2018-05-10T03:48:18.070Z,78.36
2018-05-10T03:50:44.201Z,77.61
2018-05-10T03:53:10.358Z,79.97
2018-05-10T03:55:36.505Z,80.74
2018-05-10T03:58:02.532Z,79.87
2018-05-10T04:00:28.566Z,79.85
2018-05-10T04:06:25.530Z,80.69
2018-05-10T04:09:03.915Z,80.78
2018-05-10T04:11:30.033Z,81.45
2018-05-10T04:13:56.056Z,81.05
2018-05-10T04:16:22.092Z,80.65
2018-05-10T04:18:50.181Z,81.02
2018-05-10T04:21:16.453Z,82.24
2018-05-10T04:23:42.554Z,81.75
2018-05-10T04:26:08.625Z,80.98
2018-05-10T04:28:34.650Z,81.17
2018-05-10T04:31:00.777Z,81.53
2018-05-10T04:33:26.918Z,81.65
2018-05-10T04:35:53.222Z,81.96
2018-05-10T04:38:19.205Z,81.90
2018-05-10T04:40:45.246Z,80.78
2018-05-10T04:43:11.403Z,81.14
2018-05-10T04:45:38.068Z,80.75
2018-05-10T04:48:04.099Z,80.93
2018-05-10T04:50:30.105Z,80.47
2018-05-10T04:52:56.961Z,79.65
2018-05-10T04:55:22.978Z,80.75
2018-05-10T04:57:49.918Z,80.29
2018-05-10T05:00:15.993Z,79.94
2018-05-10T05:02:42.033Z,80.09
2018-05-10T05:05:08.104Z,79.81
2018-05-10T05:07:34.199Z,80.70
2018-05-10T05:10:00.329Z,80.64
2018-05-10T05:12:26.370Z,80.09
2018-05-10T05:14:52.428Z,80.34
2018-05-10T05:17:18.465Z,80.06
2018-05-10T05:19:44.574Z,80.33
2018-05-10T05:22:10.700Z,79.19
2018-05-10T05:24:36.743Z,80.28
2018-05-10T05:27:03.120Z,80.40
2018-05-10T05:29:29.192Z,80.63
2018-05-10T05:31:55.261Z,79.95
2018-05-10T05:34:21.271Z,80.67
2018-05-10T05:36:47.292Z,80.75
2018-05-10T05:39:13.310Z,79.76
2018-05-10T05:41:39.349Z,80.43
2018-05-10T05:44:05.394Z,80.80
2018-05-10T05:46:31.476Z,80.37
2018-05-10T05:48:57.540Z,80.46
2018-05-10T05:51:23.567Z,80.29
2018-05-10T05:53:49.595Z,80.45
2018-05-10T05:56:15.656Z,78.93
2018-05-10T05:58:41.692Z,79.55
2018-05-10T06:01:07.740Z,79.00
2018-05-10T06:03:33.780Z,79.41
2018-05-10T06:05:59.813Z,79.28
2018-05-10T06:08:25.824Z,79.29
2018-05-10T06:10:51.854Z,79.21
2018-05-10T06:13:17.913Z,78.07
2018-05-10T06:15:43.978Z,78.81
2018-05-10T06:18:09.995Z,78.09
2018-05-10T06:20:36.028Z,78.50
2018-05-10T06:23:02.127Z,78.13
2018-05-10T06:25:28.209Z,78.53
2018-05-10T06:27:54.735Z,78.82
2018-05-10T06:30:20.807Z,78.84
2018-05-10T06:32:46.913Z,78.57
2018-05-10T06:35:12.985Z,78.23
2018-05-10T06:37:39.005Z,78.44
2018-05-10T06:40:05.085Z,78.12
2018-05-10T06:42:31.160Z,77.78
2018-05-10T06:44:57.456Z,77.80
2018-05-10T06:47:23.523Z,76.86
2018-05-10T06:49:49.961Z,76.53
2018-05-10T06:52:16.040Z,76.12
2018-05-10T06:54:42.143Z,76.35
2018-05-10T06:57:08.112Z,75.59
2018-05-10T06:59:34.165Z,75.93
2018-05-10T07:02:00.266Z,75.70
2018-05-10T07:04:26.362Z,75.76
2018-05-10T07:09:25.642Z,75.39
2018-05-10T07:11:51.732Z,74.96
2018-05-10T07:14:17.798Z,75.42
2018-05-10T07:16:43.940Z,75.36
2018-05-10T07:19:09.967Z,75.22
2018-05-10T07:21:36.000Z,75.26
2018-05-10T07:24:02.009Z,74.90
2018-05-10T07:26:28.037Z,74.40
2018-05-10T07:28:54.041Z,75.09
2018-05-10T07:31:20.764Z,75.41
2018-05-10T07:33:46.889Z,74.86
2018-05-10T07:36:13.017Z,75.66
2018-05-10T07:38:39.115Z,77.40
2018-05-10T07:41:05.162Z,77.55
2018-05-10T07:43:31.300Z,78.23
2018-05-10T07:45:57.561Z,77.54
2018-05-10T07:48:23.568Z,76.98
2018-05-10T07:50:49.578Z,77.10
2018-05-10T07:53:16.193Z,77.51
2018-05-10T07:55:42.199Z,77.22
2018-05-10T07:58:08.203Z,76.27
2018-05-10T08:00:34.214Z,76.06
2018-05-10T08:03:00.333Z,75.71
2018-05-10T08:05:26.350Z,75.33
2018-05-10T08:07:52.649Z,74.22
2018-05-10T08:10:18.732Z,74.21
2018-05-10T08:12:44.908Z,72.76
2018-05-10T08:15:12.250Z,71.80
2018-05-10T08:17:38.590Z,71.61
2018-05-10T08:20:04.694Z,72.83
2018-05-10T08:22:30.967Z,72.87
2018-05-10T08:24:57.372Z,73.17
2018-05-10T08:27:23.465Z,74.27
2018-05-10T08:29:49.568Z,73.89
2018-05-10T08:32:15.570Z,74.75
2018-05-10T08:34:41.614Z,75.17
2018-05-10T08:37:07.631Z,75.40
2018-05-10T08:39:33.667Z,75.48
2018-05-10T08:41:59.712Z,75.15
2018-05-10T08:44:25.789Z,73.74
2018-05-10T08:46:51.828Z,72.26
2018-05-10T08:49:17.905Z,69.96
2018-05-10T08:51:43.992Z,68.68
2018-05-10T08:54:10.013Z,67.95
2018-05-10T08:56:36.139Z,67.72
2018-05-10T08:59:02.226Z,67.69
2018-05-10T09:01:28.260Z,67.17
2018-05-10T09:03:54.529Z,65.51
2018-05-10T09:06:20.554Z,64.65
2018-05-10T09:08:47.128Z,65.08
2018-05-10T09:11:13.221Z,64.04
2018-05-10T09:13:39.462Z,63.00
2018-05-10T09:16:05.548Z,61.63
2018-05-10T09:18:31.649Z,61.32
2018-05-10T09:20:57.701Z,60.08
2018-05-10T09:23:23.745Z,60.31
2018-05-10T09:25:49.767Z,60.36
2018-05-10T09:28:15.774Z,60.98
2018-05-10T09:30:41.837Z,60.09
2018-05-10T09:33:07.934Z,59.84
2018-05-10T09:35:33.954Z,61.98
2018-05-10T09:38:00.003Z,61.52
2018-05-10T09:40:26.065Z,60.59
2018-05-10T09:42:52.124Z,59.84
2018-05-10T09:45:18.164Z,58.31
2018-05-10T09:47:44.188Z,58.11
2018-05-10T09:50:10.265Z,56.73
2018-05-10T09:52:36.349Z,56.64
2018-05-10T09:55:02.410Z,55.78
2018-05-10T09:57:28.566Z,55.34
2018-05-10T09:59:54.778Z,53.96
2018-05-10T10:02:20.772Z,54.11
2018-05-10T10:04:46.821Z,51.27
2018-05-10T10:07:12.921Z,48.73
2018-05-10T10:09:39.003Z,47.81
2018-05-10T10:12:05.170Z,46.02
2018-05-10T10:14:31.200Z,45.25
2018-05-10T10:16:57.325Z,43.74
2018-05-10T10:19:23.380Z,42.21
2018-05-10T10:21:49.404Z,40.21
2018-05-10T10:24:15.450Z,38.78
2018-05-10T10:26:41.497Z,38.66
2018-05-10T10:29:07.546Z,37.34
2018-05-10T10:31:33.557Z,39.37
2018-05-10T10:33:59.564Z,40.33
2018-05-10T10:36:25.592Z,38.72
2018-05-10T10:38:51.600Z,41.54
2018-05-10T10:41:17.644Z,43.23
2018-05-10T10:43:43.648Z,44.57
2018-05-10T10:46:09.704Z,45.05
2018-05-10T10:48:35.712Z,46.49
2018-05-10T10:51:01.769Z,47.26
2018-05-10T10:53:27.791Z,47.70
2018-05-10T10:55:53.802Z,47.86
2018-05-10T10:58:19.833Z,46.94
2018-05-10T11:00:45.889Z,46.89
2018-05-10T11:03:11.923Z,47.63
2018-05-10T11:05:37.997Z,46.82
2018-05-10T11:08:04.008Z,45.11
2018-05-10T11:10:30.026Z,45.76
2018-05-10T11:12:56.129Z,45.51
2018-05-10T11:15:22.209Z,45.05
2018-05-10T11:17:48.313Z,45.81
2018-05-10T11:20:14.336Z,46.59
2018-05-10T11:22:41.444Z,44.01
2018-05-10T11:25:07.506Z,44.38
2018-05-10T11:27:33.532Z,43.73
2018-05-10T11:29:59.600Z,43.16
2018-05-10T11:32:25.633Z,41.38
2018-05-10T11:34:51.687Z,40.07
2018-05-10T11:37:17.685Z,38.18
2018-05-10T11:39:43.702Z,37.37
2018-05-10T11:42:09.708Z,37.59
2018-05-10T11:44:35.848Z,35.47
2018-05-10T11:47:01.740Z,35.08
2018-05-10T11:49:27.737Z,33.49
2018-05-10T11:51:53.767Z,33.57
2018-05-10T11:54:19.790Z,34.10
2018-05-10T11:56:45.771Z,34.42
2018-05-10T11:59:11.794Z,32.44
2018-05-10T12:01:37.885Z,32.63
2018-05-10T12:04:03.908Z,32.83
2018-05-10T12:06:29.973Z,31.96
2018-05-10T12:08:56.043Z,30.34
2018-05-10T12:11:22.075Z,30.95
2018-05-10T12:13:48.101Z,32.58
2018-05-10T12:16:14.161Z,30.99
2018-05-10T12:18:40.164Z,30.68
2018-05-10T12:21:06.170Z,31.73
2018-05-10T12:23:32.196Z,30.01
2018-05-10T12:25:58.198Z,31.01
2018-05-10T12:28:24.228Z,30.19
2018-05-10T12:30:50.281Z,31.32
2018-05-10T12:33:16.359Z,28.53
2018-05-10T12:35:42.380Z,29.28
2018-05-10T12:38:08.397Z,29.21
2018-05-10T12:40:34.549Z,29.17
2018-05-10T12:43:00.591Z,29.22
2018-05-10T12:45:26.625Z,30.86
2018-05-10T12:47:52.688Z,30.51
2018-05-10T12:50:18.773Z,31.33
2018-05-10T12:52:44.806Z,32.62
2018-05-10T12:55:10.816Z,33.32
2018-05-10T12:57:37.292Z,34.88
2018-05-10T13:00:03.308Z,35.38
2018-05-10T13:02:29.380Z,35.07
2018-05-10T13:04:55.386Z,35.43
2018-05-10T13:07:21.397Z,36.03
2018-05-10T13:09:47.497Z,36.08
2018-05-10T13:12:13.540Z,35.10
2018-05-10T13:14:39.566Z,35.96
2018-05-10T13:17:05.584Z,36.32
2018-05-10T13:19:31.622Z,35.30
2018-05-10T13:21:57.640Z,33.00
2018-05-10T13:24:23.742Z,32.85
2018-05-10T13:26:49.768Z,34.97
2018-05-10T13:29:15.808Z,35.12
2018-05-10T13:31:41.790Z,35.50
2018-05-10T13:34:07.844Z,37.12
2018-05-10T13:36:33.861Z,33.58
2018-05-10T13:38:59.947Z,32.92
2018-05-10T13:41:25.961Z,34.93
2018-05-10T13:43:52.001Z,36.45
2018-05-10T13:46:18.013Z,36.35
2018-05-10T13:48:44.021Z,36.04
2018-05-10T13:51:10.032Z,35.97
2018-05-10T13:53:36.185Z,33.59
2018-05-10T13:56:02.242Z,35.39
2018-05-10T13:58:28.300Z,36.24
2018-05-10T14:00:54.433Z,36.07
2018-05-10T14:03:20.567Z,36.49
2018-05-10T14:05:46.606Z,36.61
2018-05-10T14:08:12.761Z,38.49
2018-05-10T14:10:38.934Z,38.08
2018-05-10T14:13:05.100Z,38.54
2018-05-10T14:15:31.284Z,40.14
2018-05-10T14:17:57.523Z,40.67
2018-05-10T14:20:23.545Z,40.75
2018-05-10T14:22:49.669Z,41.78
2018-05-10T14:25:15.815Z,42.74
2018-05-10T14:27:41.839Z,43.71
2018-05-10T14:30:07.851Z,41.84
2018-05-10T14:32:33.941Z,43.55
2018-05-10T14:35:00.006Z,45.84
2018-05-10T14:37:25.957Z,47.67
2018-05-10T14:39:51.978Z,49.18
2018-05-10T14:42:18.048Z,49.83
2018-05-10T14:44:44.181Z,50.84
2018-05-10T14:47:10.226Z,52.16
2018-05-10T14:49:36.378Z,52.51
2018-05-10T14:52:02.721Z,52.88
2018-05-10T14:54:28.781Z,54.58
2018-05-10T14:56:54.837Z,55.08
2018-05-10T14:59:21.018Z,56.14
2018-05-10T15:01:47.239Z,57.65
2018-05-10T15:04:13.472Z,58.55
2018-05-10T15:06:39.611Z,57.33
2018-05-10T15:09:05.806Z,57.52
2018-05-10T15:11:31.875Z,58.20
2018-05-10T15:13:58.136Z,59.98
2018-05-10T15:16:24.182Z,59.72
2018-05-10T15:18:50.224Z,57.99
2018-05-10T15:21:16.265Z,58.37
2018-05-10T15:23:42.360Z,57.84
2018-05-10T15:26:08.358Z,56.89
2018-05-10T15:28:34.492Z,57.74
2018-05-10T15:31:00.662Z,57.12
2018-05-10T15:33:26.829Z,58.05
2018-05-10T15:35:52.855Z,57.07
2018-05-10T15:38:19.008Z,56.03
2018-05-10T15:40:45.243Z,55.60
2018-05-10T15:43:11.557Z,55.31
2018-05-10T15:45:37.680Z,54.77
2018-05-10T15:48:03.757Z,55.89
2018-05-10T15:50:29.865Z,55.05
2018-05-10T15:52:55.891Z,55.21
2018-05-10T15:55:21.930Z,53.90
2018-05-10T15:57:47.951Z,54.26
2018-05-10T16:00:13.999Z,54.00
2018-05-10T16:02:40.069Z,53.40
2018-05-10T16:05:06.223Z,52.65
2018-05-10T16:07:32.258Z,50.56
2018-05-10T16:09:58.317Z,51.30
2018-05-10T16:12:24.324Z,51.25
2018-05-10T16:14:50.373Z,49.89
2018-05-10T16:17:16.486Z,49.22
2018-05-10T16:19:42.622Z,49.69
2018-05-10T16:22:08.790Z,49.48
2018-05-10T16:24:34.839Z,50.59
2018-05-10T16:27:00.925Z,51.39
2018-05-10T16:29:27.030Z,51.34
2018-05-10T16:31:53.188Z,52.02
2018-05-10T16:34:19.222Z,51.05
2018-05-10T16:36:45.255Z,50.55
2018-05-10T16:39:11.431Z,51.16
2018-05-10T16:41:44.369Z,50.85
2018-05-10T16:44:10.431Z,50.22
2018-05-10T16:46:36.521Z,50.72
2018-05-10T16:49:02.628Z,51.42
2018-05-10T16:51:28.633Z,50.52
2018-05-10T16:53:54.812Z,51.21
2018-05-10T16:56:20.921Z,50.74
2018-05-10T16:58:46.930Z,49.95
2018-05-10T17:01:12.941Z,50.09
2018-05-10T17:03:39.108Z,50.08
2018-05-10T17:06:05.440Z,51.11
2018-05-10T17:08:31.518Z,52.38
2018-05-10T17:10:57.552Z,51.63
2018-05-10T17:13:23.581Z,51.66
2018-05-10T17:15:49.697Z,52.42
2018-05-10T17:18:15.761Z,53.04
2018-05-10T17:20:41.823Z,54.22
2018-05-10T17:23:07.875Z,54.82
2018-05-10T17:25:33.938Z,55.28
2018-05-10T17:28:00.035Z,55.92
2018-05-10T17:30:26.091Z,55.97
2018-05-10T17:32:52.256Z,55.78
2018-05-10T17:35:18.505Z,55.60
2018-05-10T17:37:44.525Z,55.62
2018-05-10T17:40:10.643Z,56.57
2018-05-10T17:42:36.831Z,56.54
2018-05-10T17:45:02.980Z,56.56
2018-05-10T17:47:29.196Z,56.36
2018-05-10T17:49:55.365Z,56.00
2018-05-10T17:52:21.413Z,55.83
2018-05-10T17:54:47.497Z,55.90
2018-05-10T17:57:13.603Z,56.04
2018-05-10T17:59:39.620Z,55.69
2018-05-10T18:02:05.675Z,56.67
2018-05-10T18:04:31.704Z,55.46
2018-05-10T18:06:57.718Z,56.45
2018-05-10T18:09:23.766Z,55.86
2018-05-10T18:11:49.775Z,55.74
2018-05-10T18:14:15.883Z,56.14
2018-05-10T18:16:41.969Z,55.99
2018-05-10T18:19:08.023Z,56.24
2018-05-10T18:21:34.070Z,56.87
2018-05-10T18:24:00.142Z,56.65
2018-05-10T18:26:26.192Z,56.52
2018-05-10T18:28:52.230Z,56.88
2018-05-10T18:31:18.251Z,57.22
2018-05-10T18:33:44.266Z,56.96
2018-05-10T18:36:10.376Z,57.21
2018-05-10T18:38:36.445Z,57.67
2018-05-10T18:41:02.572Z,58.99
2018-05-10T18:43:29.274Z,57.30
2018-05-10T18:45:55.326Z,58.75
2018-05-10T18:48:21.475Z,59.11
2018-05-10T18:50:47.514Z,60.53
2018-05-10T18:53:13.632Z,59.83
2018-05-10T18:55:39.666Z,59.71
2018-05-10T18:58:05.714Z,59.39
2018-05-10T19:00:31.778Z,60.20
2018-05-10T19:02:57.816Z,61.06
2018-05-10T19:05:23.856Z,61.35
2018-05-10T19:07:49.997Z,61.91
2018-05-10T19:10:16.396Z,62.01
2018-05-10T19:12:42.666Z,61.68
2018-05-10T19:15:08.895Z,62.80
2018-05-10T19:17:34.921Z,62.32
2018-05-10T19:20:01.108Z,63.99
2018-05-10T19:22:27.185Z,63.55
2018-05-10T19:24:53.292Z,62.59
2018-05-10T19:27:19.380Z,63.92
2018-05-10T19:29:45.425Z,63.38
2018-05-10T19:32:11.589Z,63.97
2018-05-10T19:34:37.812Z,67.97
2018-05-10T19:37:03.977Z,67.59
2018-05-10T19:39:30.026Z,65.75
2018-05-10T19:41:56.126Z,66.81
2018-05-10T19:44:22.210Z,67.80
2018-05-10T19:46:48.316Z,67.40
2018-05-10T19:49:14.353Z,68.89
2018-05-10T19:51:40.609Z,68.10
2018-05-10T19:54:06.671Z,68.66
2018-05-10T19:56:32.803Z,69.89
2018-05-10T19:58:58.919Z,70.97
2018-05-10T20:01:25.087Z,69.04
2018-05-10T20:03:51.952Z,71.36
2018-05-10T20:06:18.048Z,70.82
2018-05-10T20:08:44.181Z,70.15
2018-05-10T20:11:10.258Z,71.83
2018-05-10T20:13:36.310Z,70.16
2018-05-10T20:16:02.361Z,73.04
2018-05-10T20:18:28.928Z,72.06
2018-05-10T20:20:55.034Z,71.44
2018-05-10T20:23:21.140Z,71.23
2018-05-10T20:25:47.196Z,72.25
2018-05-10T20:28:13.456Z,72.80
2018-05-10T20:30:39.586Z,72.29
2018-05-10T20:33:05.621Z,73.80
2018-05-10T20:35:31.650Z,73.17
2018-05-10T20:37:57.689Z,72.24
2018-05-10T20:40:23.955Z,73.83
2018-05-10T20:42:50.020Z,73.00
2018-05-10T20:45:16.056Z,74.90
2018-05-10T20:47:42.067Z,73.54
2018-05-10T20:50:08.358Z,76.13
2018-05-10T20:52:34.403Z,75.12
2018-05-10T20:55:00.568Z,73.71
2018-05-10T20:57:26.627Z,74.72
2018-05-10T20:59:52.768Z,74.23
2018-05-10T21:02:18.803Z,75.05
2018-05-10T21:04:44.808Z,77.47
2018-05-10T21:07:11.841Z,77.71
2018-05-10T21:09:37.864Z,74.59
2018-05-10T21:12:04.133Z,76.04
2018-05-10T21:14:30.219Z,75.29
2018-05-10T21:16:56.257Z,75.08
2018-05-10T21:19:22.297Z,79.39
2018-05-10T21:21:48.348Z,74.92
2018-05-10T21:24:14.398Z,76.42
2018-05-10T21:26:40.449Z,77.70
2018-05-10T21:29:06.492Z,77.25
2018-05-10T21:31:32.625Z,76.15
2018-05-10T21:33:58.732Z,78.15
2018-05-10T21:36:24.706Z,76.99
2018-05-10T21:38:51.553Z,77.21
2018-05-10T21:41:17.651Z,78.52
2018-05-10T21:43:43.673Z,77.49
2018-05-10T21:46:09.757Z,77.07
2018-05-10T21:48:35.767Z,77.63
2018-05-10T21:51:01.787Z,77.64
2018-05-10T21:53:27.840Z,78.02
2018-05-10T21:55:53.925Z,78.41
2018-05-10T21:58:19.940Z,77.83
2018-05-10T22:00:45.970Z,78.87
2018-05-10T22:03:12.002Z,78.62
2018-05-10T22:05:38.010Z,79.96
2018-05-10T22:08:04.829Z,79.06
2018-05-10T22:10:30.887Z,81.77
2018-05-10T22:12:57.969Z,79.07
2018-05-10T22:15:23.971Z,81.70
2018-05-10T22:17:49.997Z,81.21
2018-05-10T22:20:16.003Z,79.30
2018-05-10T22:22:42.100Z,80.50
2018-05-10T22:25:08.078Z,80.42
2018-05-10T22:27:34.094Z,81.14
2018-05-10T22:30:00.156Z,80.89
2018-05-10T22:32:26.126Z,79.84
2018-05-10T22:34:52.168Z,80.31
2018-05-10T22:37:18.264Z,80.22
2018-05-10T22:39:44.299Z,82.88
2018-05-10T22:42:10.331Z,81.61
2018-05-10T22:44:36.359Z,81.66
2018-05-10T22:47:02.385Z,82.46
2018-05-10T22:49:28.443Z,83.65
2018-05-10T22:51:54.472Z,81.84
2018-05-10T22:54:20.508Z,81.87
2018-05-10T22:56:46.537Z,83.97
2018-05-10T22:59:12.570Z,82.58
2018-05-10T23:01:38.669Z,82.75
2018-05-10T23:04:04.720Z,83.41
2018-05-10T23:06:30.792Z,82.51
2018-05-10T23:08:56.903Z,82.41
2018-05-10T23:11:22.962Z,83.43
2018-05-10T23:13:48.992Z,86.46
2018-05-10T23:16:15.016Z,84.09
2018-05-10T23:18:41.158Z,82.80
2018-05-10T23:21:07.290Z,81.95
2018-05-10T23:23:33.402Z,82.07
2018-05-10T23:25:59.455Z,83.25
2018-05-10T23:28:25.485Z,83.72
2018-05-10T23:30:51.637Z,86.79
2018-05-10T23:33:17.670Z,83.94
2018-05-10T23:35:43.710Z,84.26
2018-05-10T23:38:09.757Z,84.80
2018-05-10T23:40:35.772Z,85.90
2018-05-10T23:43:01.796Z,84.51
2018-05-10T23:45:27.826Z,83.81
2018-05-10T23:47:53.847Z,85.50
2018-05-10T23:50:19.860Z,85.34
2018-05-10T23:52:45.881Z,83.69
2018-05-10T23:55:11.991Z,84.83
2018-05-10T23:57:38.043Z,84.30
